createdAt,value
2022-10-05T06:22:02.841Z,61.88
2022-10-05T06:23:03.055Z,67.50
2022-10-05T06:24:02.755Z,67.50
2022-10-05T06:25:02.736Z,73.12
2022-10-05T06:26:04.993Z,73.12
2022-10-05T06:27:02.690Z,73.12
2022-10-05T06:28:02.728Z,73.12
2022-10-05T06:29:03.322Z,78.75
2022-10-05T06:30:02.706Z,84.38
2022-10-05T06:31:02.605Z,84.38
2022-10-05T06:32:02.670Z,90.00
2022-10-05T06:33:02.585Z,90.00
2022-10-05T06:34:02.621Z,90.00
2022-10-05T06:35:02.584Z,95.62
2022-10-05T06:36:02.867Z,95.62
2022-10-05T06:37:02.557Z,95.62
2022-10-05T06:38:05.240Z,101.25
2022-10-05T06:39:02.523Z,101.25
2022-10-05T06:40:02.545Z,101.25
2022-10-05T06:41:02.467Z,101.25
2022-10-05T06:42:02.488Z,101.25
2022-10-05T06:43:04.257Z,101.25
2022-10-05T06:44:02.487Z,101.25
2022-10-05T06:45:02.435Z,101.25
2022-10-05T06:46:02.444Z,106.88
2022-10-05T06:47:02.408Z,106.88
2022-10-05T06:48:05.427Z,106.88
2022-10-05T06:49:02.383Z,112.50
2022-10-05T06:50:02.360Z,112.50
2022-10-05T06:51:02.332Z,118.12
2022-10-05T06:52:02.389Z,129.38
2022-10-05T06:53:02.313Z,135.00
2022-10-05T06:54:02.313Z,135.00
2022-10-05T06:55:02.274Z,140.62
2022-10-05T06:56:02.612Z,140.62
2022-10-05T06:57:02.322Z,135.00
2022-10-05T06:58:02.278Z,135.00
2022-10-05T06:59:02.513Z,135.00
2022-10-05T07:00:02.234Z,135.00
2022-10-05T07:01:02.416Z,135.00
2022-10-05T07:02:02.291Z,135.00
2022-10-05T07:03:02.333Z,135.00
2022-10-05T07:04:02.195Z,135.00
2022-10-05T07:05:02.155Z,135.00
2022-10-05T07:06:02.141Z,135.00
2022-10-05T07:07:02.162Z,129.38
2022-10-05T07:08:03.962Z,135.00
2022-10-05T07:09:02.105Z,135.00
2022-10-05T07:10:02.119Z,140.62
2022-10-05T07:11:02.061Z,140.62
2022-10-05T07:12:05.169Z,140.62
2022-10-05T07:13:02.041Z,140.62
2022-10-05T07:14:02.085Z,135.00
2022-10-05T07:15:02.023Z,140.62
2022-10-05T07:16:02.198Z,140.62
2022-10-05T07:17:02.248Z,140.62
2022-10-05T07:18:01.990Z,135.00
2022-10-05T07:19:01.996Z,135.00
2022-10-05T07:20:01.994Z,135.00
2022-10-05T07:21:02.018Z,135.00
2022-10-05T07:22:01.984Z,146.25
2022-10-05T07:23:01.916Z,157.50
2022-10-05T07:24:02.102Z,157.50
2022-10-05T07:25:01.929Z,163.12
2022-10-05T07:26:01.877Z,168.75
2022-10-05T07:27:01.884Z,168.75
2022-10-05T07:28:01.950Z,163.12
2022-10-05T07:29:01.878Z,157.50
2022-10-05T07:30:01.848Z,151.88
2022-10-05T07:31:01.849Z,151.88
2022-10-05T07:32:02.082Z,146.25
2022-10-05T07:33:01.787Z,140.62
